createdAt,value
2023-10-20T00:00:16.453Z,12.93
2023-10-20T00:02:38.175Z,15.00
2023-10-20T00:04:59.919Z,14.50
2023-10-20T00:07:22.690Z,14.03
2023-10-20T00:09:44.460Z,14.03
2023-10-20T00:12:06.483Z,13.90
2023-10-20T00:14:28.302Z,14.33
2023-10-20T00:16:50.042Z,14.70
2023-10-20T00:19:12.833Z,13.97
2023-10-20T00:21:36.494Z,19.00
2023-10-20T00:23:58.337Z,15.65
2023-10-20T00:26:20.302Z,15.90
2023-10-20T00:28:44.858Z,14.20
2023-10-20T00:31:06.644Z,15.00
2023-10-20T00:33:28.415Z,16.07
2023-10-20T00:35:50.216Z,17.33
2023-10-20T00:38:12.578Z,15.17
2023-10-20T00:40:35.891Z,17.77
2023-10-20T00:42:57.609Z,17.67
2023-10-20T00:45:20.447Z,16.20
2023-10-20T00:47:47.791Z,17.80
2023-10-20T00:50:14.311Z,17.30
2023-10-20T00:52:38.876Z,17.33
2023-10-20T00:57:24.670Z,17.57
2023-10-20T00:59:46.400Z,15.13
2023-10-20T01:02:08.216Z,17.27
2023-10-20T01:04:30.160Z,14.83
2023-10-20T01:06:52.204Z,18.13
2023-10-20T01:09:27.580Z,16.57
2023-10-20T01:11:50.867Z,16.80
2023-10-20T01:14:12.685Z,18.57
2023-10-20T01:16:34.423Z,18.20
2023-10-20T01:18:57.048Z,18.00
2023-10-20T01:21:18.716Z,19.20
2023-10-20T01:23:40.565Z,17.93
2023-10-20T01:26:03.405Z,18.80
2023-10-20T01:28:25.229Z,19.10
2023-10-20T01:30:47.093Z,16.60
2023-10-20T01:33:08.864Z,20.53
2023-10-20T01:35:30.667Z,17.67
2023-10-20T01:37:52.785Z,16.93
2023-10-20T01:40:14.610Z,15.90
2023-10-20T01:42:37.150Z,16.53
2023-10-20T01:44:58.830Z,16.73
2023-10-20T01:47:20.576Z,16.80
2023-10-20T01:49:42.366Z,16.63
2023-10-20T01:52:04.394Z,18.20
2023-10-20T01:54:26.135Z,16.17
2023-10-20T01:56:47.892Z,18.53
2023-10-20T01:59:09.878Z,18.60
2023-10-20T02:01:31.683Z,16.43
2023-10-20T02:03:53.921Z,16.10
2023-10-20T02:06:15.727Z,15.40
2023-10-20T02:08:40.584Z,16.53
2023-10-20T02:11:02.577Z,16.07
2023-10-20T02:13:25.061Z,15.03
2023-10-20T02:15:49.136Z,16.87
2023-10-20T02:18:10.956Z,15.43
2023-10-20T02:20:32.858Z,15.70
2023-10-20T02:22:55.165Z,17.33
2023-10-20T02:25:17.778Z,15.87
2023-10-20T02:27:43.478Z,15.93
2023-10-20T02:30:06.785Z,16.30
2023-10-20T02:32:28.549Z,16.87
2023-10-20T02:34:50.436Z,18.13
2023-10-20T02:37:13.473Z,17.47
2023-10-20T02:39:36.037Z,17.23
2023-10-20T02:41:57.750Z,17.73
2023-10-20T02:44:20.000Z,17.03
2023-10-20T02:46:42.648Z,16.40
2023-10-20T02:49:05.426Z,19.70
2023-10-20T02:51:27.176Z,18.77
2023-10-20T02:53:49.030Z,17.80
2023-10-20T02:56:20.192Z,15.93
2023-10-20T02:58:46.343Z,16.67
2023-10-20T03:01:09.148Z,19.87
2023-10-20T03:03:31.102Z,17.77
2023-10-20T03:05:52.988Z,17.57
2023-10-20T03:08:14.802Z,17.00
2023-10-20T03:10:37.589Z,17.93
2023-10-20T03:12:59.876Z,19.27
2023-10-20T03:15:21.538Z,17.77
2023-10-20T03:17:43.334Z,16.90
2023-10-20T03:20:15.997Z,18.20
2023-10-20T03:22:38.586Z,19.27
2023-10-20T03:25:01.435Z,18.53
2023-10-20T03:27:23.809Z,18.90
2023-10-20T03:29:45.765Z,19.50
2023-10-20T03:32:07.703Z,18.80
2023-10-20T03:34:29.406Z,17.70
2023-10-20T03:36:53.313Z,19.87
2023-10-20T03:39:21.679Z,20.25
2023-10-20T03:41:43.444Z,19.00
2023-10-20T03:44:06.017Z,21.23
2023-10-20T03:46:28.137Z,20.90
2023-10-20T03:48:49.944Z,21.07
2023-10-20T03:51:13.819Z,21.70
2023-10-20T03:53:48.249Z,20.97
2023-10-20T03:56:10.772Z,21.58
2023-10-20T03:58:33.194Z,23.63
2023-10-20T04:01:02.812Z,22.47
2023-10-20T04:03:27.683Z,22.13
2023-10-20T04:05:49.430Z,21.83
2023-10-20T04:08:11.205Z,22.80
2023-10-20T04:10:34.123Z,23.27
2023-10-20T04:12:55.840Z,23.10
2023-10-20T04:15:18.457Z,24.80
2023-10-20T04:17:41.410Z,23.70
2023-10-20T04:20:05.205Z,23.90
2023-10-20T04:22:28.131Z,22.70
2023-10-20T04:24:49.999Z,23.13
2023-10-20T04:27:39.474Z,24.43
2023-10-20T04:30:20.236Z,23.73
2023-10-20T04:33:00.671Z,22.70
2023-10-20T04:35:40.993Z,25.33
2023-10-20T04:38:21.320Z,23.27
2023-10-20T04:41:01.545Z,21.40
2023-10-20T04:43:43.830Z,23.07
2023-10-20T04:46:24.444Z,21.97
2023-10-20T04:48:58.736Z,23.20
2023-10-20T04:51:30.434Z,24.00
2023-10-20T04:53:56.939Z,25.60
2023-10-20T04:56:38.689Z,23.30
2023-10-20T04:59:20.743Z,22.93
2023-10-20T05:01:46.664Z,24.20
2023-10-20T05:04:17.177Z,25.40
2023-10-20T05:06:44.082Z,25.83
2023-10-20T05:09:06.187Z,23.27
2023-10-20T05:11:27.916Z,24.77
2023-10-20T05:13:49.964Z,24.93
2023-10-20T05:16:13.377Z,23.87
2023-10-20T05:18:35.853Z,25.37
2023-10-20T05:20:57.667Z,23.50
2023-10-20T05:23:19.599Z,23.57
2023-10-20T05:25:49.803Z,24.60
2023-10-20T05:28:11.502Z,24.00
2023-10-20T05:30:34.249Z,22.83
2023-10-20T05:32:56.059Z,25.77
2023-10-20T05:35:18.039Z,24.23
2023-10-20T05:37:39.779Z,23.47
2023-10-20T05:40:02.391Z,23.07
2023-10-20T05:42:25.176Z,23.33
2023-10-20T05:45:06.087Z,21.67
2023-10-20T05:47:28.440Z,23.67
2023-10-20T05:49:50.202Z,20.07
2023-10-20T05:52:11.957Z,22.60
2023-10-20T05:54:33.824Z,24.93
2023-10-20T05:56:55.699Z,25.80
2023-10-20T05:59:17.385Z,22.83
2023-10-20T06:01:39.174Z,25.40
2023-10-20T06:04:02.093Z,25.77
2023-10-20T06:06:24.026Z,23.87
2023-10-20T06:08:45.880Z,24.83
2023-10-20T06:11:07.861Z,24.70
2023-10-20T06:13:35.958Z,25.10
2023-10-20T06:15:58.589Z,24.23
2023-10-20T06:18:32.815Z,24.93
2023-10-20T06:20:57.021Z,25.00
2023-10-20T06:23:20.130Z,25.43
2023-10-20T06:25:43.368Z,23.77
2023-10-20T06:28:05.852Z,23.00
2023-10-20T06:30:27.734Z,22.77
2023-10-20T06:33:10.306Z,24.83
2023-10-20T06:35:34.837Z,25.80
2023-10-20T06:38:02.804Z,24.00
2023-10-20T06:40:24.536Z,25.67
2023-10-20T06:42:46.565Z,24.73
2023-10-20T06:45:09.368Z,23.27
2023-10-20T06:47:31.201Z,20.70
2023-10-20T06:49:52.977Z,23.53
2023-10-20T06:52:18.642Z,22.63
2023-10-20T06:54:40.309Z,23.67
2023-10-20T06:57:02.183Z,25.03
2023-10-20T06:59:24.002Z,23.57
2023-10-20T07:01:46.164Z,23.27
2023-10-20T07:04:11.639Z,23.97
2023-10-20T07:06:33.390Z,20.80
2023-10-20T07:08:55.287Z,20.97
2023-10-20T07:11:17.309Z,21.23
2023-10-20T07:13:39.089Z,21.00
2023-10-20T07:16:01.953Z,18.93
2023-10-20T07:18:24.045Z,20.13
2023-10-20T07:20:45.944Z,20.70
2023-10-20T07:23:08.015Z,19.53
2023-10-20T07:25:29.837Z,19.17
2023-10-20T07:27:51.638Z,19.07
2023-10-20T07:30:14.192Z,20.17
2023-10-20T07:32:36.179Z,17.83
2023-10-20T07:34:58.060Z,17.33
2023-10-20T07:37:19.896Z,16.90
2023-10-20T07:39:41.883Z,15.50
2023-10-20T07:42:03.816Z,18.30
2023-10-20T07:44:25.898Z,15.40
2023-10-20T07:46:48.152Z,17.27
2023-10-20T07:49:13.741Z,15.47
2023-10-20T07:51:35.853Z,14.03
2023-10-20T07:53:57.607Z,15.83
2023-10-20T07:56:19.396Z,12.63
2023-10-20T07:58:41.216Z,12.53
2023-10-20T08:01:03.066Z,14.60
2023-10-20T08:03:24.997Z,12.07
2023-10-20T08:05:47.381Z,9.80
2023-10-20T08:08:10.042Z,9.70
2023-10-20T08:10:33.728Z,9.23
2023-10-20T08:12:55.772Z,8.77
2023-10-20T08:15:17.758Z,9.20
2023-10-20T08:17:39.805Z,8.23
2023-10-20T08:20:01.803Z,12.23
2023-10-20T08:22:24.628Z,8.20
2023-10-20T08:24:46.649Z,8.73
2023-10-20T08:27:08.823Z,7.80
2023-10-20T08:29:30.639Z,8.80
2023-10-20T08:31:52.465Z,9.27
2023-10-20T08:34:14.587Z,9.30
2023-10-20T08:36:36.673Z,8.43
2023-10-20T08:39:02.723Z,8.43
2023-10-20T08:41:24.781Z,7.77
2023-10-20T08:43:47.456Z,7.17
2023-10-20T08:46:12.866Z,6.80
2023-10-20T08:48:37.200Z,7.57
2023-10-20T08:51:00.713Z,6.05
2023-10-20T08:53:24.161Z,6.07
2023-10-20T08:55:46.181Z,5.72
2023-10-20T08:58:08.160Z,5.63
2023-10-20T09:00:31.799Z,5.83
2023-10-20T09:03:00.606Z,4.70
2023-10-20T09:05:27.532Z,4.40
2023-10-20T09:07:55.844Z,4.20
2023-10-20T09:10:17.824Z,4.13
2023-10-20T09:12:40.182Z,3.93
2023-10-20T09:15:02.084Z,4.17
2023-10-20T09:17:24.802Z,4.17
2023-10-20T09:19:47.503Z,3.63
2023-10-20T09:22:09.574Z,3.97
2023-10-20T09:24:36.046Z,3.90
2023-10-20T09:26:57.889Z,3.97
2023-10-20T09:29:22.709Z,3.33
2023-10-20T09:31:44.916Z,3.97
2023-10-20T09:34:08.127Z,4.20
2023-10-20T09:36:32.433Z,4.15
2023-10-20T09:38:56.698Z,4.03
2023-10-20T09:41:23.494Z,3.75
2023-10-20T09:43:54.827Z,4.17
2023-10-20T09:46:43.259Z,4.00
2023-10-20T09:49:19.794Z,3.73
2023-10-20T09:51:46.559Z,3.50
2023-10-20T09:54:08.595Z,3.87
2023-10-20T09:56:30.897Z,3.60
2023-10-20T09:58:59.891Z,3.43
2023-10-20T10:01:23.087Z,3.80
2023-10-20T10:04:01.620Z,4.13
2023-10-20T10:06:24.492Z,3.63
2023-10-20T10:08:48.722Z,3.70
2023-10-20T10:11:31.882Z,3.97
2023-10-20T10:14:05.872Z,3.37
2023-10-20T10:16:28.683Z,3.45
2023-10-20T10:18:52.068Z,3.90
2023-10-20T10:21:26.462Z,3.33
2023-10-20T10:24:27.595Z,3.03
2023-10-20T10:26:57.359Z,3.20
2023-10-20T10:29:23.520Z,4.23
2023-10-20T10:31:55.680Z,3.30
2023-10-20T10:34:23.182Z,3.23
2023-10-20T10:36:49.349Z,3.00
2023-10-20T10:39:23.949Z,3.53
2023-10-20T10:41:45.786Z,3.42
2023-10-20T10:44:09.325Z,3.57
2023-10-20T10:46:35.951Z,3.83
2023-10-20T10:49:11.088Z,3.93
2023-10-20T10:51:33.248Z,3.93
2023-10-20T10:53:55.050Z,3.67
2023-10-20T10:56:18.953Z,3.67
2023-10-20T10:58:41.023Z,3.47
2023-10-20T11:01:03.511Z,4.07
2023-10-20T11:03:26.505Z,3.67
2023-10-20T11:05:48.856Z,4.10
2023-10-20T11:08:13.944Z,3.80
2023-10-20T11:10:46.951Z,3.80
2023-10-20T11:13:14.702Z,3.67
2023-10-20T11:15:37.303Z,3.70
2023-10-20T11:18:02.125Z,3.90
2023-10-20T11:20:24.902Z,3.83
2023-10-20T11:22:46.685Z,3.73
2023-10-20T11:25:11.230Z,3.50
2023-10-20T11:30:11.251Z,3.87
2023-10-20T11:32:33.133Z,3.93
2023-10-20T11:34:54.960Z,3.63
2023-10-20T11:37:16.815Z,3.53
2023-10-20T11:39:38.773Z,3.30
2023-10-20T11:42:00.906Z,3.47
2023-10-20T11:44:25.722Z,3.50
2023-10-20T11:46:48.254Z,3.57
2023-10-20T11:49:10.464Z,3.40
2023-10-20T11:51:32.430Z,3.63
2023-10-20T11:53:54.375Z,3.27
2023-10-20T11:56:16.660Z,3.40
2023-10-20T11:58:38.865Z,3.33
2023-10-20T12:01:00.681Z,3.27
2023-10-20T12:03:22.492Z,3.50
2023-10-20T12:05:44.474Z,3.33
2023-10-20T12:08:06.747Z,3.27
2023-10-20T12:10:28.706Z,3.77
2023-10-20T12:12:52.742Z,3.57
2023-10-20T12:15:14.457Z,3.97
2023-10-20T12:17:38.056Z,3.90
2023-10-20T12:20:00.103Z,4.50
2023-10-20T12:22:21.938Z,4.17
2023-10-20T12:24:43.644Z,4.40
2023-10-20T12:27:05.375Z,3.70
2023-10-20T12:29:27.190Z,3.50
2023-10-20T12:31:52.095Z,3.43
2023-10-20T12:34:14.979Z,3.70
2023-10-20T12:36:37.238Z,3.07
2023-10-20T12:38:59.135Z,3.37
2023-10-20T12:41:20.952Z,3.50
2023-10-20T12:43:43.944Z,3.50
2023-10-20T12:46:05.911Z,3.17
2023-10-20T12:48:27.830Z,3.20
2023-10-20T12:50:51.123Z,3.33
2023-10-20T12:53:14.240Z,2.80
2023-10-20T12:55:36.053Z,3.03
2023-10-20T12:57:58.201Z,2.73
2023-10-20T13:00:21.323Z,3.20
2023-10-20T13:02:44.916Z,2.60
2023-10-20T13:05:07.417Z,3.33
2023-10-20T13:07:29.172Z,3.20
2023-10-20T13:09:50.860Z,3.20
2023-10-20T13:12:12.542Z,3.40
2023-10-20T13:14:35.992Z,3.20
2023-10-20T13:16:58.457Z,3.38
2023-10-20T13:19:20.246Z,3.27
2023-10-20T13:21:42.801Z,3.30
2023-10-20T13:24:05.647Z,2.63
2023-10-20T13:26:27.652Z,3.00
2023-10-20T13:28:49.583Z,3.13
2023-10-20T13:31:12.988Z,3.10
2023-10-20T13:33:38.068Z,2.90
2023-10-20T13:36:11.305Z,3.43
2023-10-20T13:38:33.744Z,3.50
2023-10-20T13:40:55.585Z,3.43
2023-10-20T13:43:17.296Z,3.77
2023-10-20T13:45:39.133Z,3.70
2023-10-20T13:48:01.016Z,3.77
2023-10-20T13:50:23.711Z,4.03
2023-10-20T13:52:48.169Z,3.80
2023-10-20T13:57:31.773Z,3.83
2023-10-20T13:59:53.672Z,4.17
2023-10-20T14:02:16.358Z,4.50
2023-10-20T14:04:38.106Z,4.47
2023-10-20T14:06:59.821Z,4.27
2023-10-20T14:09:21.571Z,4.60
2023-10-20T14:11:43.398Z,4.43
2023-10-20T14:14:06.608Z,4.50
2023-10-20T14:16:28.467Z,4.57
2023-10-20T14:18:50.250Z,5.00
2023-10-20T14:21:12.004Z,4.50
2023-10-20T14:23:34.058Z,4.80
2023-10-20T14:25:57.878Z,4.70
2023-10-20T14:28:19.638Z,5.20
2023-10-20T14:30:41.307Z,6.07
2023-10-20T14:33:03.118Z,6.23
2023-10-20T14:35:25.275Z,6.83
2023-10-20T14:37:47.411Z,5.90
2023-10-20T14:40:11.706Z,6.97
2023-10-20T14:44:55.860Z,6.53
2023-10-20T14:47:18.499Z,6.77
2023-10-20T14:49:40.353Z,6.97
2023-10-20T14:52:02.982Z,6.77
2023-10-20T14:54:25.024Z,6.83
2023-10-20T14:56:47.122Z,7.10
2023-10-20T14:59:10.965Z,6.70
2023-10-20T15:01:34.609Z,7.22
2023-10-20T15:03:56.611Z,7.60
2023-10-20T15:06:18.421Z,7.27
2023-10-20T15:08:40.219Z,6.87
2023-10-20T15:11:09.200Z,7.00
2023-10-20T15:13:32.508Z,7.47
2023-10-20T15:16:01.564Z,7.00
2023-10-20T15:18:23.434Z,6.87
2023-10-20T15:20:45.948Z,7.27
2023-10-20T15:23:17.084Z,7.40
2023-10-20T15:25:41.592Z,7.37
2023-10-20T15:28:05.360Z,7.17
2023-10-20T15:30:27.267Z,6.60
2023-10-20T15:32:49.443Z,7.50
2023-10-20T15:35:11.303Z,7.37
2023-10-20T15:37:33.135Z,7.20
2023-10-20T15:40:04.118Z,7.40
2023-10-20T15:42:37.260Z,6.87
2023-10-20T15:44:59.327Z,7.13
2023-10-20T15:47:21.116Z,7.10
2023-10-20T15:49:42.946Z,8.33
2023-10-20T15:52:04.929Z,7.10
2023-10-20T15:54:26.785Z,8.10
2023-10-20T15:56:52.345Z,8.17
2023-10-20T15:59:14.174Z,18.30
2023-10-20T16:01:35.928Z,10.90
2023-10-20T16:03:57.945Z,10.40
2023-10-20T16:06:19.779Z,9.20
2023-10-20T16:08:41.572Z,10.70
2023-10-20T16:11:03.409Z,11.20
2023-10-20T16:13:25.152Z,10.03
2023-10-20T16:15:46.881Z,10.43
2023-10-20T16:18:08.718Z,9.47
2023-10-20T16:20:30.722Z,10.33
2023-10-20T16:22:52.869Z,9.83
2023-10-20T16:25:14.703Z,10.47
2023-10-20T16:27:36.619Z,9.27
2023-10-20T16:30:03.320Z,9.67
2023-10-20T16:32:25.156Z,9.47
2023-10-20T16:34:46.887Z,9.33
2023-10-20T16:37:08.690Z,8.83
2023-10-20T16:39:30.894Z,10.27
2023-10-20T16:41:52.594Z,12.13
2023-10-20T16:44:14.372Z,10.53
2023-10-20T16:46:40.812Z,11.20
2023-10-20T16:49:03.432Z,10.23
2023-10-20T16:51:25.076Z,11.83
2023-10-20T16:53:49.020Z,11.53
2023-10-20T16:56:10.794Z,10.70
2023-10-20T16:58:32.691Z,11.10
2023-10-20T17:01:01.406Z,10.13
2023-10-20T17:03:23.829Z,12.47
2023-10-20T17:05:45.897Z,10.53
2023-10-20T17:08:07.870Z,11.03
2023-10-20T17:10:29.686Z,11.23
2023-10-20T17:12:52.731Z,10.90
2023-10-20T17:15:14.782Z,11.43
2023-10-20T17:17:36.682Z,10.80
2023-10-20T17:19:58.461Z,11.77
2023-10-20T17:22:20.254Z,10.67
2023-10-20T17:24:42.474Z,11.23
2023-10-20T17:27:04.327Z,11.00
2023-10-20T17:29:26.139Z,9.67
2023-10-20T17:31:48.167Z,10.17
2023-10-20T17:34:09.971Z,9.77
2023-10-20T17:36:31.845Z,9.87
2023-10-20T17:38:53.676Z,10.20
2023-10-20T17:41:19.329Z,9.87
2023-10-20T17:43:41.323Z,9.57
2023-10-20T17:46:07.876Z,8.67
2023-10-20T17:48:30.211Z,8.43
2023-10-20T17:50:53.869Z,9.23
2023-10-20T17:53:15.813Z,8.73
2023-10-20T17:55:42.461Z,8.80
2023-10-20T17:58:04.678Z,9.70
2023-10-20T18:00:26.717Z,8.63
2023-10-20T18:02:49.355Z,12.93
2023-10-20T18:05:12.396Z,9.60
2023-10-20T18:07:34.248Z,8.40
2023-10-20T18:09:57.046Z,8.00
2023-10-20T18:12:18.806Z,10.57
2023-10-20T18:14:40.593Z,9.47
2023-10-20T18:17:02.476Z,8.87
2023-10-20T18:19:24.576Z,9.07
2023-10-20T18:21:47.294Z,9.60
2023-10-20T18:24:09.352Z,9.13
2023-10-20T18:26:31.203Z,9.70
2023-10-20T18:28:53.024Z,8.97
2023-10-20T18:31:17.272Z,8.93
2023-10-20T18:33:39.305Z,8.60
2023-10-20T18:36:02.764Z,9.27
2023-10-20T18:38:24.487Z,10.70
2023-10-20T18:40:46.940Z,9.70
2023-10-20T18:43:08.777Z,9.70
2023-10-20T18:45:30.539Z,9.07
2023-10-20T18:47:52.460Z,9.13
2023-10-20T18:50:14.248Z,12.17
2023-10-20T18:52:36.304Z,8.60
2023-10-20T18:54:58.060Z,9.07
2023-10-20T18:57:19.748Z,12.23
2023-10-20T18:59:41.543Z,9.47
2023-10-20T19:02:03.270Z,9.97
2023-10-20T19:04:25.194Z,8.17
2023-10-20T19:06:46.853Z,8.30
2023-10-20T19:09:09.523Z,7.63
2023-10-20T19:11:31.827Z,8.00
2023-10-20T19:13:53.717Z,7.70
2023-10-20T19:16:15.561Z,7.90
2023-10-20T19:18:37.446Z,7.97
2023-10-20T19:21:01.413Z,7.43
2023-10-20T19:23:23.230Z,8.30
2023-10-20T19:25:45.549Z,7.80
2023-10-20T19:28:07.293Z,8.83
2023-10-20T19:30:29.000Z,11.47
2023-10-20T19:32:50.809Z,10.23
2023-10-20T19:35:12.703Z,8.17
2023-10-20T19:37:36.923Z,9.20
2023-10-20T19:39:59.798Z,8.00
2023-10-20T19:42:22.057Z,8.17
2023-10-20T19:44:43.994Z,7.97
2023-10-20T19:47:06.029Z,7.73
2023-10-20T19:49:28.497Z,7.53
2023-10-20T19:51:50.350Z,7.60
2023-10-20T19:54:12.582Z,7.50
2023-10-20T19:56:34.421Z,9.10
2023-10-20T19:58:56.127Z,7.10
2023-10-20T20:01:18.898Z,7.57
2023-10-20T20:03:40.911Z,7.67
2023-10-20T20:06:13.855Z,6.50
2023-10-20T20:08:36.541Z,7.20
2023-10-20T20:10:58.460Z,7.53
2023-10-20T20:13:20.249Z,6.97
2023-10-20T20:15:42.281Z,7.00
2023-10-20T20:18:06.580Z,7.37
2023-10-20T20:20:28.514Z,6.60
2023-10-20T20:22:50.273Z,7.83
2023-10-20T20:25:12.060Z,6.43
2023-10-20T20:27:33.899Z,7.57
2023-10-20T20:29:55.676Z,6.93
2023-10-20T20:32:17.829Z,7.37
2023-10-20T20:34:40.312Z,7.13
2023-10-20T20:37:02.099Z,7.10
2023-10-20T20:39:23.841Z,6.97
2023-10-20T20:41:45.766Z,7.80
2023-10-20T20:44:07.573Z,6.73
2023-10-20T20:46:29.443Z,7.17
2023-10-20T20:48:53.325Z,7.23
2023-10-20T20:51:15.081Z,7.03
2023-10-20T20:53:37.062Z,7.10
2023-10-20T20:55:59.172Z,7.17
2023-10-20T20:58:21.016Z,8.37
2023-10-20T21:00:42.852Z,7.53
2023-10-20T21:03:05.728Z,8.13
2023-10-20T21:05:27.756Z,8.73
2023-10-20T21:07:49.508Z,7.03
2023-10-20T21:10:11.217Z,7.00
2023-10-20T21:12:32.959Z,7.10
2023-10-20T21:14:54.763Z,8.93
2023-10-20T21:17:16.527Z,9.30
2023-10-20T21:19:38.245Z,9.77
2023-10-20T21:22:00.052Z,7.63
2023-10-20T21:24:24.880Z,8.63
2023-10-20T21:26:46.658Z,7.10
2023-10-20T21:29:08.798Z,8.10
2023-10-20T21:31:30.929Z,8.20
2023-10-20T21:33:52.754Z,8.57
2023-10-20T21:36:18.839Z,7.73
2023-10-20T21:38:41.005Z,8.40
2023-10-20T21:41:02.964Z,8.17
2023-10-20T21:43:24.664Z,7.33
2023-10-20T21:45:57.197Z,9.10
2023-10-20T21:48:19.054Z,9.73
2023-10-20T21:50:40.933Z,9.23
2023-10-20T21:53:02.875Z,7.27
2023-10-20T21:55:24.816Z,9.10
2023-10-20T21:57:46.503Z,7.17
2023-10-20T22:00:18.131Z,6.73
2023-10-20T22:02:40.063Z,8.63
2023-10-20T22:05:01.908Z,7.33
2023-10-20T22:07:23.671Z,7.60
2023-10-20T22:09:53.747Z,6.63
2023-10-20T22:12:16.454Z,8.30
2023-10-20T22:14:38.211Z,7.43
2023-10-20T22:17:00.075Z,8.33
2023-10-20T22:19:22.109Z,6.13
2023-10-20T22:21:43.793Z,7.43
2023-10-20T22:24:06.132Z,7.73
2023-10-20T22:26:27.898Z,7.57
2023-10-20T22:28:49.711Z,7.33
2023-10-20T22:31:12.270Z,6.00
2023-10-20T22:33:34.437Z,5.77
2023-10-20T22:35:56.311Z,6.83
2023-10-20T22:38:18.027Z,6.47
2023-10-20T22:40:39.753Z,9.03
2023-10-20T22:43:01.498Z,6.53
2023-10-20T22:45:23.393Z,7.17
2023-10-20T22:47:45.604Z,6.87
2023-10-20T22:50:09.028Z,6.53
2023-10-20T22:52:31.111Z,7.63
2023-10-20T22:54:52.970Z,7.77
2023-10-20T22:57:14.779Z,7.87
2023-10-20T22:59:36.715Z,9.03
2023-10-20T23:01:58.692Z,6.73
2023-10-20T23:04:20.821Z,6.80
2023-10-20T23:06:42.601Z,6.37
2023-10-20T23:09:04.592Z,6.73
2023-10-20T23:11:26.584Z,6.87
2023-10-20T23:13:48.294Z,7.50
2023-10-20T23:16:10.100Z,6.57
2023-10-20T23:18:32.032Z,6.97
2023-10-20T23:20:55.736Z,6.47
2023-10-20T23:23:17.612Z,6.97
2023-10-20T23:25:39.378Z,8.93
2023-10-20T23:28:01.968Z,7.00
2023-10-20T23:30:23.693Z,6.17
2023-10-20T23:32:45.608Z,5.80
2023-10-20T23:35:08.359Z,6.67
2023-10-20T23:37:30.070Z,6.47
2023-10-20T23:39:51.980Z,7.70
2023-10-20T23:42:14.192Z,7.63
2023-10-20T23:44:36.069Z,7.97
2023-10-20T23:46:58.142Z,8.87
2023-10-20T23:49:19.870Z,11.20
2023-10-20T23:51:41.554Z,9.33
2023-10-20T23:54:03.592Z,9.57
2023-10-20T23:56:26.150Z,9.77
2023-10-20T23:58:47.871Z,8.97
